sensor_id;sensor_type;location;lat;lon;timestamp;P1;durP1;ratioP1;P2;durP2;ratioP2
10295;SDS011;5193;51.032;6.356;2022-12-20T00:00:59;1.30;;;1.20;;
10295;SDS011;5193;51.032;6.356;2022-12-20T00:03:25;1.60;;;1.30;;
10295;SDS011;5193;51.032;6.356;2022-12-20T00:05:50;2.20;;;1.23;;
10295;SDS011;5193;51.032;6.356;2022-12-20T00:08:16;2.13;;;1.20;;
10295;SDS011;5193;51.032;6.356;2022-12-20T00:10:43;2.43;;;1.27;;
10295;SDS011;5193;51.032;6.356;2022-12-20T00:13:10;1.97;;;1.20;;
10295;SDS011;5193;51.032;6.356;2022-12-20T00:15:36;4.67;;;1.40;;
10295;SDS011;5193;51.032;6.356;2022-12-20T00:18:02;3.27;;;1.57;;
10295;SDS011;5193;51.032;6.356;2022-12-20T00:20:28;2.73;;;1.20;;
10295;SDS011;5193;51.032;6.356;2022-12-20T00:22:54;5.73;;;1.47;;
10295;SDS011;5193;51.032;6.356;2022-12-20T00:25:20;1.57;;;1.30;;
10295;SDS011;5193;51.032;6.356;2022-12-20T00:27:48;1.73;;;1.20;;
10295;SDS011;5193;51.032;6.356;2022-12-20T00:30:14;4.13;;;1.40;;
10295;SDS011;5193;51.032;6.356;2022-12-20T00:32:41;2.00;;;1.30;;
10295;SDS011;5193;51.032;6.356;2022-12-20T00:35:07;1.23;;;1.07;;
10295;SDS011;5193;51.032;6.356;2022-12-20T00:37:33;3.97;;;1.70;;
10295;SDS011;5193;51.032;6.356;2022-12-20T00:39:58;1.50;;;1.20;;
10295;SDS011;5193;51.032;6.356;2022-12-20T00:42:24;1.60;;;1.20;;
10295;SDS011;5193;51.032;6.356;2022-12-20T00:44:50;2.77;;;1.50;;
10295;SDS011;5193;51.032;6.356;2022-12-20T00:47:15;1.47;;;1.20;;
10295;SDS011;5193;51.032;6.356;2022-12-20T00:49:41;2.33;;;1.33;;
10295;SDS011;5193;51.032;6.356;2022-12-20T00:52:07;1.60;;;1.20;;
10295;SDS011;5193;51.032;6.356;2022-12-20T00:54:32;1.40;;;1.20;;
10295;SDS011;5193;51.032;6.356;2022-12-20T00:56:58;2.27;;;1.40;;
10295;SDS011;5193;51.032;6.356;2022-12-20T00:59:24;3.63;;;1.37;;
10295;SDS011;5193;51.032;6.356;2022-12-20T01:01:49;2.87;;;1.30;;
10295;SDS011;5193;51.032;6.356;2022-12-20T01:04:15;1.70;;;1.50;;
10295;SDS011;5193;51.032;6.356;2022-12-20T01:06:41;2.50;;;1.33;;
10295;SDS011;5193;51.032;6.356;2022-12-20T01:09:06;4.70;;;1.90;;
10295;SDS011;5193;51.032;6.356;2022-12-20T01:11:33;4.33;;;1.40;;
10295;SDS011;5193;51.032;6.356;2022-12-20T01:14:02;2.37;;;1.30;;
10295;SDS011;5193;51.032;6.356;2022-12-20T01:16:38;2.80;;;1.60;;
10295;SDS011;5193;51.032;6.356;2022-12-20T01:19:09;6.73;;;1.43;;
10295;SDS011;5193;51.032;6.356;2022-12-20T01:21:36;3.63;;;1.40;;
10295;SDS011;5193;51.032;6.356;2022-12-20T01:24:08;2.07;;;1.20;;
10295;SDS011;5193;51.032;6.356;2022-12-20T01:26:35;3.13;;;1.60;;
10295;SDS011;5193;51.032;6.356;2022-12-20T01:29:00;2.67;;;1.50;;
10295;SDS011;5193;51.032;6.356;2022-12-20T01:31:26;2.57;;;1.40;;
10295;SDS011;5193;51.032;6.356;2022-12-20T01:33:53;4.57;;;1.87;;
10295;SDS011;5193;51.032;6.356;2022-12-20T01:36:21;3.23;;;1.90;;
10295;SDS011;5193;51.032;6.356;2022-12-20T01:38:49;1.97;;;1.60;;
10295;SDS011;5193;51.032;6.356;2022-12-20T01:41:15;1.97;;;1.50;;
10295;SDS011;5193;51.032;6.356;2022-12-20T01:43:44;3.67;;;1.60;;
10295;SDS011;5193;51.032;6.356;2022-12-20T01:46:19;2.77;;;1.60;;
10295;SDS011;5193;51.032;6.356;2022-12-20T01:48:49;3.43;;;1.60;;
10295;SDS011;5193;51.032;6.356;2022-12-20T01:51:19;2.20;;;1.60;;
10295;SDS011;5193;51.032;6.356;2022-12-20T01:53:47;2.43;;;1.70;;
10295;SDS011;5193;51.032;6.356;2022-12-20T01:56:18;3.07;;;1.70;;
10295;SDS011;5193;51.032;6.356;2022-12-20T01:58:44;2.63;;;2.07;;
10295;SDS011;5193;51.032;6.356;2022-12-20T02:01:12;4.23;;;1.83;;
10295;SDS011;5193;51.032;6.356;2022-12-20T03:06:57;3.00;;;1.97;;
10295;SDS011;5193;51.032;6.356;2022-12-20T03:09:28;2.47;;;2.10;;
10295;SDS011;5193;51.032;6.356;2022-12-20T03:11:55;3.70;;;1.70;;
10295;SDS011;5193;51.032;6.356;2022-12-20T03:14:21;3.30;;;2.20;;
10295;SDS011;5193;51.032;6.356;2022-12-20T03:16:47;3.13;;;2.23;;
10295;SDS011;5193;51.032;6.356;2022-12-20T03:19:12;3.87;;;1.90;;
10295;SDS011;5193;51.032;6.356;2022-12-20T03:21:38;3.43;;;2.30;;
10295;SDS011;5193;51.032;6.356;2022-12-20T03:24:04;2.93;;;1.67;;
10295;SDS011;5193;51.032;6.356;2022-12-20T03:26:29;3.27;;;2.20;;
10295;SDS011;5193;51.032;6.356;2022-12-20T03:28:55;2.80;;;1.80;;
10295;SDS011;5193;51.032;6.356;2022-12-20T03:31:20;4.70;;;2.37;;
10295;SDS011;5193;51.032;6.356;2022-12-20T03:33:46;4.50;;;2.10;;
10295;SDS011;5193;51.032;6.356;2022-12-20T03:36:12;2.77;;;2.00;;
10295;SDS011;5193;51.032;6.356;2022-12-20T03:38:37;3.63;;;2.10;;
10295;SDS011;5193;51.032;6.356;2022-12-20T03:41:03;7.00;;;2.33;;
10295;SDS011;5193;51.032;6.356;2022-12-20T03:43:29;2.83;;;2.17;;
10295;SDS011;5193;51.032;6.356;2022-12-20T03:45:54;3.93;;;2.33;;
10295;SDS011;5193;51.032;6.356;2022-12-20T03:48:20;3.73;;;2.20;;
10295;SDS011;5193;51.032;6.356;2022-12-20T03:50:45;4.10;;;2.10;;
10295;SDS011;5193;51.032;6.356;2022-12-20T03:53:11;2.73;;;2.10;;
10295;SDS011;5193;51.032;6.356;2022-12-20T03:55:36;3.10;;;2.07;;
10295;SDS011;5193;51.032;6.356;2022-12-20T03:58:02;5.20;;;2.17;;
10295;SDS011;5193;51.032;6.356;2022-12-20T04:00:28;3.83;;;2.20;;
10295;SDS011;5193;51.032;6.356;2022-12-20T04:02:53;3.97;;;2.10;;
10295;SDS011;5193;51.032;6.356;2022-12-20T04:05:19;4.70;;;2.20;;
10295;SDS011;5193;51.032;6.356;2022-12-20T04:07:45;2.13;;;1.70;;
10295;SDS011;5193;51.032;6.356;2022-12-20T04:10:11;2.63;;;2.17;;
10295;SDS011;5193;51.032;6.356;2022-12-20T04:12:37;2.87;;;2.23;;
10295;SDS011;5193;51.032;6.356;2022-12-20T04:15:02;4.27;;;2.10;;
10295;SDS011;5193;51.032;6.356;2022-12-20T04:17:28;3.43;;;2.17;;
10295;SDS011;5193;51.032;6.356;2022-12-20T04:19:54;2.43;;;1.83;;
10295;SDS011;5193;51.032;6.356;2022-12-20T04:22:19;4.33;;;2.07;;
10295;SDS011;5193;51.032;6.356;2022-12-20T04:24:45;2.53;;;1.93;;
10295;SDS011;5193;51.032;6.356;2022-12-20T04:27:11;2.43;;;1.87;;
10295;SDS011;5193;51.032;6.356;2022-12-20T04:29:36;4.53;;;2.20;;
10295;SDS011;5193;51.032;6.356;2022-12-20T04:32:02;4.93;;;1.90;;
10295;SDS011;5193;51.032;6.356;2022-12-20T04:34:28;2.53;;;2.03;;
10295;SDS011;5193;51.032;6.356;2022-12-20T04:36:53;3.30;;;2.17;;
10295;SDS011;5193;51.032;6.356;2022-12-20T04:39:19;4.67;;;2.30;;
10295;SDS011;5193;51.032;6.356;2022-12-20T04:41:44;3.20;;;2.00;;
10295;SDS011;5193;51.032;6.356;2022-12-20T04:44:10;3.53;;;2.27;;
10295;SDS011;5193;51.032;6.356;2022-12-20T04:46:35;3.93;;;2.33;;
10295;SDS011;5193;51.032;6.356;2022-12-20T04:49:01;2.67;;;2.10;;
10295;SDS011;5193;51.032;6.356;2022-12-20T04:51:27;3.67;;;2.40;;
10295;SDS011;5193;51.032;6.356;2022-12-20T04:53:53;2.60;;;2.00;;
10295;SDS011;5193;51.032;6.356;2022-12-20T04:56:23;6.70;;;2.73;;
10295;SDS011;5193;51.032;6.356;2022-12-20T04:58:53;3.40;;;2.50;;
10295;SDS011;5193;51.032;6.356;2022-12-20T05:01:20;4.33;;;2.00;;
10295;SDS011;5193;51.032;6.356;2022-12-20T05:03:46;4.50;;;2.30;;
10295;SDS011;5193;51.032;6.356;2022-12-20T05:06:12;4.60;;;2.40;;
10295;SDS011;5193;51.032;6.356;2022-12-20T05:08:38;4.50;;;2.57;;
10295;SDS011;5193;51.032;6.356;2022-12-20T05:11:04;5.47;;;2.47;;
10295;SDS011;5193;51.032;6.356;2022-12-20T05:13:30;3.17;;;1.97;;
10295;SDS011;5193;51.032;6.356;2022-12-20T05:15:57;4.13;;;2.07;;
10295;SDS011;5193;51.032;6.356;2022-12-20T05:18:23;6.57;;;2.30;;
10295;SDS011;5193;51.032;6.356;2022-12-20T05:20:49;2.53;;;2.03;;
10295;SDS011;5193;51.032;6.356;2022-12-20T05:23:36;2.47;;;2.20;;
10295;SDS011;5193;51.032;6.356;2022-12-20T05:26:25;2.27;;;1.70;;
10295;SDS011;5193;51.032;6.356;2022-12-20T05:28:53;4.33;;;2.60;;
10295;SDS011;5193;51.032;6.356;2022-12-20T05:31:18;3.17;;;2.20;;
10295;SDS011;5193;51.032;6.356;2022-12-20T05:33:44;4.87;;;2.03;;
10295;SDS011;5193;51.032;6.356;2022-12-20T05:36:09;4.10;;;1.87;;
10295;SDS011;5193;51.032;6.356;2022-12-20T05:38:35;5.43;;;2.10;;
10295;SDS011;5193;51.032;6.356;2022-12-20T05:41:00;4.53;;;1.87;;
10295;SDS011;5193;51.032;6.356;2022-12-20T05:43:28;6.07;;;2.10;;
10295;SDS011;5193;51.032;6.356;2022-12-20T05:45:54;5.03;;;2.10;;
10295;SDS011;5193;51.032;6.356;2022-12-20T05:48:19;4.57;;;2.27;;
10295;SDS011;5193;51.032;6.356;2022-12-20T05:50:45;5.20;;;2.10;;
10295;SDS011;5193;51.032;6.356;2022-12-20T05:53:12;4.93;;;2.00;;
10295;SDS011;5193;51.032;6.356;2022-12-20T05:55:42;3.87;;;1.90;;
10295;SDS011;5193;51.032;6.356;2022-12-20T05:58:08;2.57;;;1.90;;
10295;SDS011;5193;51.032;6.356;2022-12-20T06:00:37;4.03;;;2.20;;
10295;SDS011;5193;51.032;6.356;2022-12-20T06:03:04;5.40;;;2.67;;
10295;SDS011;5193;51.032;6.356;2022-12-20T06:05:30;3.90;;;2.57;;
10295;SDS011;5193;51.032;6.356;2022-12-20T06:07:56;4.33;;;2.63;;
10295;SDS011;5193;51.032;6.356;2022-12-20T06:10:22;6.00;;;2.43;;
10295;SDS011;5193;51.032;6.356;2022-12-20T06:12:48;3.67;;;2.40;;
10295;SDS011;5193;51.032;6.356;2022-12-20T06:15:14;7.03;;;2.70;;
10295;SDS011;5193;51.032;6.356;2022-12-20T06:17:40;4.40;;;2.33;;
10295;SDS011;5193;51.032;6.356;2022-12-20T06:20:05;5.57;;;2.47;;
10295;SDS011;5193;51.032;6.356;2022-12-20T06:22:32;3.10;;;2.10;;
10295;SDS011;5193;51.032;6.356;2022-12-20T06:24:58;2.93;;;2.33;;
10295;SDS011;5193;51.032;6.356;2022-12-20T06:27:23;4.17;;;2.50;;
10295;SDS011;5193;51.032;6.356;2022-12-20T06:29:49;7.87;;;3.27;;
10295;SDS011;5193;51.032;6.356;2022-12-20T06:32:18;3.83;;;2.50;;
10295;SDS011;5193;51.032;6.356;2022-12-20T06:34:44;7.90;;;2.30;;
10295;SDS011;5193;51.032;6.356;2022-12-20T06:37:10;3.17;;;2.07;;
10295;SDS011;5193;51.032;6.356;2022-12-20T06:39:36;3.73;;;2.17;;
10295;SDS011;5193;51.032;6.356;2022-12-20T06:42:01;3.00;;;1.43;;
10295;SDS011;5193;51.032;6.356;2022-12-20T06:44:27;2.40;;;1.87;;
10295;SDS011;5193;51.032;6.356;2022-12-20T06:46:53;4.00;;;1.90;;
10295;SDS011;5193;51.032;6.356;2022-12-20T06:49:18;3.50;;;2.33;;
10295;SDS011;5193;51.032;6.356;2022-12-20T06:51:44;1.97;;;1.70;;
10295;SDS011;5193;51.032;6.356;2022-12-20T06:54:09;6.73;;;2.00;;
10295;SDS011;5193;51.032;6.356;2022-12-20T06:56:35;2.23;;;1.73;;
10295;SDS011;5193;51.032;6.356;2022-12-20T06:59:01;2.40;;;1.60;;
10295;SDS011;5193;51.032;6.356;2022-12-20T07:01:26;3.50;;;1.57;;
10295;SDS011;5193;51.032;6.356;2022-12-20T07:03:52;1.97;;;1.77;;
10295;SDS011;5193;51.032;6.356;2022-12-20T07:06:17;3.03;;;1.53;;
10295;SDS011;5193;51.032;6.356;2022-12-20T07:08:43;4.67;;;2.63;;
10295;SDS011;5193;51.032;6.356;2022-12-20T07:11:08;2.27;;;1.37;;
10295;SDS011;5193;51.032;6.356;2022-12-20T07:13:34;2.47;;;1.63;;
10295;SDS011;5193;51.032;6.356;2022-12-20T07:16:00;2.90;;;1.80;;
10295;SDS011;5193;51.032;6.356;2022-12-20T07:18:27;3.83;;;1.50;;
10295;SDS011;5193;51.032;6.356;2022-12-20T07:20:53;3.93;;;1.73;;
10295;SDS011;5193;51.032;6.356;2022-12-20T07:23:23;2.50;;;1.63;;
10295;SDS011;5193;51.032;6.356;2022-12-20T07:25:52;2.23;;;1.57;;
10295;SDS011;5193;51.032;6.356;2022-12-20T07:28:19;2.20;;;1.57;;
10295;SDS011;5193;51.032;6.356;2022-12-20T07:30:45;2.07;;;1.77;;
10295;SDS011;5193;51.032;6.356;2022-12-20T07:33:10;3.17;;;1.70;;
10295;SDS011;5193;51.032;6.356;2022-12-20T07:35:36;3.40;;;1.60;;
10295;SDS011;5193;51.032;6.356;2022-12-20T07:38:01;4.73;;;2.33;;
10295;SDS011;5193;51.032;6.356;2022-12-20T07:40:27;4.80;;;2.00;;
10295;SDS011;5193;51.032;6.356;2022-12-20T07:42:52;2.87;;;2.07;;
10295;SDS011;5193;51.032;6.356;2022-12-20T07:45:18;3.60;;;1.80;;
10295;SDS011;5193;51.032;6.356;2022-12-20T07:47:43;1.47;;;1.30;;
10295;SDS011;5193;51.032;6.356;2022-12-20T07:50:09;3.07;;;1.60;;
10295;SDS011;5193;51.032;6.356;2022-12-20T07:52:35;2.00;;;1.40;;
10295;SDS011;5193;51.032;6.356;2022-12-20T07:55:04;2.17;;;1.47;;
10295;SDS011;5193;51.032;6.356;2022-12-20T07:57:34;2.20;;;1.70;;
10295;SDS011;5193;51.032;6.356;2022-12-20T08:00:07;2.30;;;1.73;;
10295;SDS011;5193;51.032;6.356;2022-12-20T08:02:34;2.37;;;1.67;;
10295;SDS011;5193;51.032;6.356;2022-12-20T08:05:10;2.00;;;1.50;;
10295;SDS011;5193;51.032;6.356;2022-12-20T08:07:37;2.27;;;1.60;;
10295;SDS011;5193;51.032;6.356;2022-12-20T08:10:06;3.53;;;1.70;;
10295;SDS011;5193;51.032;6.356;2022-12-20T08:12:33;2.53;;;1.67;;
10295;SDS011;5193;51.032;6.356;2022-12-20T08:14:59;3.27;;;1.60;;
10295;SDS011;5193;51.032;6.356;2022-12-20T08:17:25;3.20;;;1.87;;
10295;SDS011;5193;51.032;6.356;2022-12-20T08:19:50;2.40;;;1.77;;
10295;SDS011;5193;51.032;6.356;2022-12-20T08:22:19;2.00;;;1.60;;
10295;SDS011;5193;51.032;6.356;2022-12-20T08:24:45;4.70;;;1.57;;
10295;SDS011;5193;51.032;6.356;2022-12-20T08:27:10;3.70;;;1.53;;
10295;SDS011;5193;51.032;6.356;2022-12-20T08:29:36;3.83;;;1.77;;
10295;SDS011;5193;51.032;6.356;2022-12-20T08:32:02;1.83;;;1.30;;
10295;SDS011;5193;51.032;6.356;2022-12-20T08:34:27;4.17;;;1.67;;
10295;SDS011;5193;51.032;6.356;2022-12-20T08:36:53;2.57;;;1.47;;
10295;SDS011;5193;51.032;6.356;2022-12-20T08:39:19;3.00;;;1.33;;
10295;SDS011;5193;51.032;6.356;2022-12-20T08:41:45;2.47;;;1.40;;
10295;SDS011;5193;51.032;6.356;2022-12-20T08:44:10;3.30;;;1.63;;
10295;SDS011;5193;51.032;6.356;2022-12-20T08:46:36;3.73;;;1.67;;
10295;SDS011;5193;51.032;6.356;2022-12-20T08:49:04;3.27;;;1.80;;
10295;SDS011;5193;51.032;6.356;2022-12-20T08:51:30;2.07;;;1.40;;
10295;SDS011;5193;51.032;6.356;2022-12-20T08:53:56;2.87;;;1.40;;
10295;SDS011;5193;51.032;6.356;2022-12-20T08:56:22;5.93;;;1.67;;
10295;SDS011;5193;51.032;6.356;2022-12-20T08:58:48;1.80;;;1.40;;
10295;SDS011;5193;51.032;6.356;2022-12-20T09:01:15;1.77;;;1.30;;
10295;SDS011;5193;51.032;6.356;2022-12-20T09:03:42;2.97;;;1.87;;
10295;SDS011;5193;51.032;6.356;2022-12-20T09:06:10;1.93;;;1.23;;
10295;SDS011;5193;51.032;6.356;2022-12-20T09:08:38;2.23;;;1.53;;
10295;SDS011;5193;51.032;6.356;2022-12-20T09:11:08;3.97;;;1.60;;
10295;SDS011;5193;51.032;6.356;2022-12-20T09:13:38;2.73;;;1.10;;
10295;SDS011;5193;51.032;6.356;2022-12-20T09:16:05;2.53;;;1.57;;
10295;SDS011;5193;51.032;6.356;2022-12-20T09:18:32;2.23;;;1.40;;
10295;SDS011;5193;51.032;6.356;2022-12-20T09:20:59;2.67;;;1.50;;
10295;SDS011;5193;51.032;6.356;2022-12-20T09:23:25;1.33;;;1.20;;
10295;SDS011;5193;51.032;6.356;2022-12-20T09:25:51;1.57;;;1.23;;
10295;SDS011;5193;51.032;6.356;2022-12-20T09:28:17;4.57;;;1.30;;
10295;SDS011;5193;51.032;6.356;2022-12-20T09:30:42;3.83;;;1.73;;
10295;SDS011;5193;51.032;6.356;2022-12-20T09:33:08;2.17;;;1.40;;
10295;SDS011;5193;51.032;6.356;2022-12-20T09:35:33;6.03;;;1.70;;
10295;SDS011;5193;51.032;6.356;2022-12-20T09:37:59;1.87;;;1.50;;
10295;SDS011;5193;51.032;6.356;2022-12-20T09:40:26;2.53;;;1.20;;
10295;SDS011;5193;51.032;6.356;2022-12-20T09:42:56;4.30;;;1.50;;
10295;SDS011;5193;51.032;6.356;2022-12-20T09:45:27;2.73;;;1.70;;
10295;SDS011;5193;51.032;6.356;2022-12-20T09:47:55;1.47;;;1.30;;
10295;SDS011;5193;51.032;6.356;2022-12-20T09:50:24;4.07;;;1.60;;
10295;SDS011;5193;51.032;6.356;2022-12-20T09:56:10;3.73;;;1.50;;
10295;SDS011;5193;51.032;6.356;2022-12-20T09:59:09;3.33;;;1.43;;
10295;SDS011;5193;51.032;6.356;2022-12-20T10:01:37;2.67;;;1.17;;
10295;SDS011;5193;51.032;6.356;2022-12-20T10:04:12;2.27;;;1.70;;
10295;SDS011;5193;51.032;6.356;2022-12-20T10:26:03;4.67;;;1.37;;
10295;SDS011;5193;51.032;6.356;2022-12-20T10:28:34;3.00;;;2.23;;
10295;SDS011;5193;51.032;6.356;2022-12-20T10:31:00;7.83;;;2.03;;
10295;SDS011;5193;51.032;6.356;2022-12-20T10:33:29;2.83;;;1.57;;
10295;SDS011;5193;51.032;6.356;2022-12-20T10:36:16;2.20;;;1.30;;
10295;SDS011;5193;51.032;6.356;2022-12-20T10:38:49;5.23;;;1.67;;
10295;SDS011;5193;51.032;6.356;2022-12-20T10:41:18;4.60;;;1.60;;
10295;SDS011;5193;51.032;6.356;2022-12-20T10:43:56;5.90;;;1.80;;
10295;SDS011;5193;51.032;6.356;2022-12-20T10:46:35;2.47;;;1.33;;
10295;SDS011;5193;51.032;6.356;2022-12-20T10:51:51;2.63;;;1.60;;
10295;SDS011;5193;51.032;6.356;2022-12-20T10:54:22;3.87;;;1.33;;
10295;SDS011;5193;51.032;6.356;2022-12-20T10:57:00;4.77;;;1.30;;
10295;SDS011;5193;51.032;6.356;2022-12-20T10:59:57;1.80;;;1.27;;
10295;SDS011;5193;51.032;6.356;2022-12-20T11:02:37;5.47;;;2.30;;
10295;SDS011;5193;51.032;6.356;2022-12-20T11:07:36;5.50;;;1.50;;
10295;SDS011;5193;51.032;6.356;2022-12-20T11:10:22;3.67;;;1.50;;
10295;SDS011;5193;51.032;6.356;2022-12-20T11:15:30;3.60;;;1.60;;
10295;SDS011;5193;51.032;6.356;2022-12-20T11:18:14;5.97;;;1.57;;
10295;SDS011;5193;51.032;6.356;2022-12-20T11:23:54;6.23;;;1.83;;
10295;SDS011;5193;51.032;6.356;2022-12-20T11:26:45;3.13;;;1.33;;
10295;SDS011;5193;51.032;6.356;2022-12-20T11:29:33;4.07;;;1.23;;
10295;SDS011;5193;51.032;6.356;2022-12-20T11:35:37;2.90;;;1.50;;
10295;SDS011;5193;51.032;6.356;2022-12-20T11:38:09;3.43;;;1.20;;
10295;SDS011;5193;51.032;6.356;2022-12-20T11:43:50;1.97;;;1.33;;
10295;SDS011;5193;51.032;6.356;2022-12-20T11:46:29;2.10;;;1.50;;
10295;SDS011;5193;51.032;6.356;2022-12-20T11:54:33;3.60;;;1.57;;
10295;SDS011;5193;51.032;6.356;2022-12-20T11:57:05;2.40;;;1.47;;
10295;SDS011;5193;51.032;6.356;2022-12-20T11:59:41;2.23;;;1.30;;
10295;SDS011;5193;51.032;6.356;2022-12-20T12:02:13;2.67;;;1.57;;
10295;SDS011;5193;51.032;6.356;2022-12-20T12:07:32;3.67;;;1.80;;
10295;SDS011;5193;51.032;6.356;2022-12-20T12:12:47;3.50;;;1.73;;
10295;SDS011;5193;51.032;6.356;2022-12-20T12:15:35;2.37;;;1.27;;
10295;SDS011;5193;51.032;6.356;2022-12-20T12:18:22;4.17;;;1.97;;
10295;SDS011;5193;51.032;6.356;2022-12-20T12:26:26;1.50;;;1.30;;
10295;SDS011;5193;51.032;6.356;2022-12-20T12:28:57;1.50;;;1.20;;
10295;SDS011;5193;51.032;6.356;2022-12-20T12:31:39;3.20;;;1.50;;
10295;SDS011;5193;51.032;6.356;2022-12-20T12:37:06;2.60;;;1.70;;
10295;SDS011;5193;51.032;6.356;2022-12-20T12:45:14;1.83;;;1.40;;
10295;SDS011;5193;51.032;6.356;2022-12-20T12:47:50;8.43;;;1.80;;
10295;SDS011;5193;51.032;6.356;2022-12-20T12:50:24;3.73;;;1.63;;
10295;SDS011;5193;51.032;6.356;2022-12-20T12:53:05;1.67;;;1.30;;
10295;SDS011;5193;51.032;6.356;2022-12-20T12:55:45;1.97;;;1.30;;
10295;SDS011;5193;51.032;6.356;2022-12-20T13:01:01;2.97;;;1.47;;
10295;SDS011;5193;51.032;6.356;2022-12-20T13:03:37;2.63;;;1.50;;
10295;SDS011;5193;51.032;6.356;2022-12-20T13:11:32;2.87;;;1.40;;
10295;SDS011;5193;51.032;6.356;2022-12-20T13:16:48;5.50;;;1.70;;
10295;SDS011;5193;51.032;6.356;2022-12-20T13:29:56;3.30;;;1.60;;
10295;SDS011;5193;51.032;6.356;2022-12-20T13:40:31;4.90;;;1.77;;
10295;SDS011;5193;51.032;6.356;2022-12-20T13:43:09;6.97;;;1.87;;
10295;SDS011;5193;51.032;6.356;2022-12-20T13:45:40;2.53;;;1.60;;
10295;SDS011;5193;51.032;6.356;2022-12-20T13:48:09;1.80;;;1.33;;
10295;SDS011;5193;51.032;6.356;2022-12-20T13:50:59;3.43;;;1.50;;
10295;SDS011;5193;51.032;6.356;2022-12-20T13:53:25;4.37;;;1.47;;
10295;SDS011;5193;51.032;6.356;2022-12-20T13:55:52;4.20;;;1.40;;
10295;SDS011;5193;51.032;6.356;2022-12-20T14:01:05;2.57;;;1.53;;
10295;SDS011;5193;51.032;6.356;2022-12-20T14:03:39;5.10;;;2.00;;
10295;SDS011;5193;51.032;6.356;2022-12-20T14:06:09;5.27;;;1.57;;
10295;SDS011;5193;51.032;6.356;2022-12-20T14:08:39;6.93;;;2.10;;
10295;SDS011;5193;51.032;6.356;2022-12-20T14:11:08;5.23;;;2.40;;
10295;SDS011;5193;51.032;6.356;2022-12-20T14:13:38;2.47;;;1.80;;
10295;SDS011;5193;51.032;6.356;2022-12-20T14:16:15;4.50;;;1.80;;
10295;SDS011;5193;51.032;6.356;2022-12-20T14:18:46;5.87;;;1.60;;
10295;SDS011;5193;51.032;6.356;2022-12-20T14:21:12;3.93;;;1.90;;
10295;SDS011;5193;51.032;6.356;2022-12-20T14:23:39;5.10;;;1.90;;
10295;SDS011;5193;51.032;6.356;2022-12-20T14:26:11;5.47;;;1.70;;
10295;SDS011;5193;51.032;6.356;2022-12-20T14:31:53;4.40;;;1.80;;
10295;SDS011;5193;51.032;6.356;2022-12-20T14:34:01;2.00;;;1.80;;
10295;SDS011;5193;51.032;6.356;2022-12-20T14:36:27;2.53;;;1.70;;
10295;SDS011;5193;51.032;6.356;2022-12-20T14:38:54;3.07;;;1.70;;
10295;SDS011;5193;51.032;6.356;2022-12-20T14:44:03;4.70;;;1.63;;
10295;SDS011;5193;51.032;6.356;2022-12-20T14:46:32;6.20;;;1.90;;
10295;SDS011;5193;51.032;6.356;2022-12-20T14:51:49;3.57;;;1.80;;
10295;SDS011;5193;51.032;6.356;2022-12-20T14:54:31;5.93;;;2.43;;
10295;SDS011;5193;51.032;6.356;2022-12-20T14:56:57;5.43;;;1.67;;
10295;SDS011;5193;51.032;6.356;2022-12-20T14:59:25;2.63;;;2.10;;
10295;SDS011;5193;51.032;6.356;2022-12-20T15:01:55;2.33;;;1.80;;
10295;SDS011;5193;51.032;6.356;2022-12-20T15:06:58;4.60;;;1.87;;
10295;SDS011;5193;51.032;6.356;2022-12-20T15:09:25;5.00;;;1.50;;
10295;SDS011;5193;51.032;6.356;2022-12-20T15:11:51;4.30;;;2.00;;
10295;SDS011;5193;51.032;6.356;2022-12-20T15:14:33;4.13;;;1.97;;
10295;SDS011;5193;51.032;6.356;2022-12-20T15:17:08;2.60;;;1.80;;
10295;SDS011;5193;51.032;6.356;2022-12-20T15:19:36;4.87;;;1.90;;
10295;SDS011;5193;51.032;6.356;2022-12-20T15:22:01;3.30;;;1.70;;
10295;SDS011;5193;51.032;6.356;2022-12-20T15:24:27;4.57;;;2.10;;
10295;SDS011;5193;51.032;6.356;2022-12-20T15:26:53;3.90;;;1.90;;
10295;SDS011;5193;51.032;6.356;2022-12-20T15:29:21;3.23;;;1.60;;
10295;SDS011;5193;51.032;6.356;2022-12-20T15:31:48;5.30;;;1.90;;
10295;SDS011;5193;51.032;6.356;2022-12-20T15:36:56;6.07;;;2.00;;
10295;SDS011;5193;51.032;6.356;2022-12-20T15:39:24;3.03;;;1.57;;
10295;SDS011;5193;51.032;6.356;2022-12-20T15:41:50;3.37;;;1.90;;
10295;SDS011;5193;51.032;6.356;2022-12-20T15:44:18;5.00;;;1.80;;
10295;SDS011;5193;51.032;6.356;2022-12-20T15:46:46;2.00;;;1.80;;
10295;SDS011;5193;51.032;6.356;2022-12-20T15:49:16;3.93;;;1.90;;
10295;SDS011;5193;51.032;6.356;2022-12-20T15:51:45;3.23;;;1.90;;
10295;SDS011;5193;51.032;6.356;2022-12-20T15:54:19;4.30;;;2.10;;
10295;SDS011;5193;51.032;6.356;2022-12-20T15:56:49;4.57;;;2.20;;
10295;SDS011;5193;51.032;6.356;2022-12-20T15:59:15;3.70;;;2.07;;
10295;SDS011;5193;51.032;6.356;2022-12-20T16:01:40;4.80;;;1.73;;
10295;SDS011;5193;51.032;6.356;2022-12-20T16:04:06;2.27;;;1.83;;
10295;SDS011;5193;51.032;6.356;2022-12-20T16:06:36;2.00;;;1.67;;
10295;SDS011;5193;51.032;6.356;2022-12-20T16:09:01;3.10;;;1.70;;
10295;SDS011;5193;51.032;6.356;2022-12-20T16:11:28;6.40;;;2.00;;
10295;SDS011;5193;51.032;6.356;2022-12-20T16:13:55;4.60;;;1.90;;
10295;SDS011;5193;51.032;6.356;2022-12-20T16:16:23;3.80;;;1.87;;
10295;SDS011;5193;51.032;6.356;2022-12-20T16:18:53;4.23;;;1.57;;
10295;SDS011;5193;51.032;6.356;2022-12-20T16:23:51;3.93;;;1.80;;
10295;SDS011;5193;51.032;6.356;2022-12-20T16:26:18;3.10;;;1.87;;
10295;SDS011;5193;51.032;6.356;2022-12-20T16:28:45;3.70;;;1.60;;
10295;SDS011;5193;51.032;6.356;2022-12-20T16:34:00;4.50;;;1.80;;
10295;SDS011;5193;51.032;6.356;2022-12-20T16:36:46;2.60;;;1.87;;
10295;SDS011;5193;51.032;6.356;2022-12-20T16:39:12;8.23;;;2.03;;
10295;SDS011;5193;51.032;6.356;2022-12-20T16:41:38;5.00;;;2.00;;
10295;SDS011;5193;51.032;6.356;2022-12-20T16:44:05;7.27;;;2.07;;
10295;SDS011;5193;51.032;6.356;2022-12-20T16:46:35;3.83;;;1.73;;
10295;SDS011;5193;51.032;6.356;2022-12-20T16:49:00;4.00;;;2.03;;
10295;SDS011;5193;51.032;6.356;2022-12-20T16:53:57;4.47;;;2.30;;
10295;SDS011;5193;51.032;6.356;2022-12-20T16:56:24;3.60;;;2.07;;
10295;SDS011;5193;51.032;6.356;2022-12-20T16:58:50;3.13;;;2.00;;
10295;SDS011;5193;51.032;6.356;2022-12-20T17:01:17;2.73;;;2.00;;
10295;SDS011;5193;51.032;6.356;2022-12-20T17:03:44;3.87;;;2.13;;
10295;SDS011;5193;51.032;6.356;2022-12-20T17:06:11;5.47;;;2.10;;
10295;SDS011;5193;51.032;6.356;2022-12-20T17:08:38;3.23;;;2.20;;
10295;SDS011;5193;51.032;6.356;2022-12-20T17:13:42;3.00;;;2.23;;
10295;SDS011;5193;51.032;6.356;2022-12-20T17:16:10;2.37;;;2.03;;
10295;SDS011;5193;51.032;6.356;2022-12-20T17:18:40;3.80;;;2.20;;
10295;SDS011;5193;51.032;6.356;2022-12-20T17:21:23;4.47;;;2.17;;
10295;SDS011;5193;51.032;6.356;2022-12-20T17:24:00;3.40;;;2.20;;
10295;SDS011;5193;51.032;6.356;2022-12-20T17:26:27;5.87;;;2.10;;
10295;SDS011;5193;51.032;6.356;2022-12-20T17:28:54;3.03;;;2.07;;
10295;SDS011;5193;51.032;6.356;2022-12-20T17:31:30;4.17;;;2.20;;
10295;SDS011;5193;51.032;6.356;2022-12-20T17:34:03;5.70;;;2.63;;
10295;SDS011;5193;51.032;6.356;2022-12-20T17:36:44;4.07;;;2.10;;
10295;SDS011;5193;51.032;6.356;2022-12-20T17:39:10;5.47;;;2.47;;
10295;SDS011;5193;51.032;6.356;2022-12-20T17:41:36;3.13;;;2.03;;
10295;SDS011;5193;51.032;6.356;2022-12-20T17:44:02;3.63;;;2.40;;
10295;SDS011;5193;51.032;6.356;2022-12-20T17:46:29;4.60;;;2.17;;
10295;SDS011;5193;51.032;6.356;2022-12-20T17:48:55;3.40;;;2.30;;
10295;SDS011;5193;51.032;6.356;2022-12-20T17:51:26;3.93;;;1.93;;
10295;SDS011;5193;51.032;6.356;2022-12-20T17:53:54;3.73;;;1.87;;
10295;SDS011;5193;51.032;6.356;2022-12-20T17:56:34;4.03;;;1.80;;
10295;SDS011;5193;51.032;6.356;2022-12-20T17:59:01;4.60;;;1.87;;
10295;SDS011;5193;51.032;6.356;2022-12-20T18:01:29;2.77;;;1.87;;
10295;SDS011;5193;51.032;6.356;2022-12-20T18:03:57;3.17;;;1.73;;
10295;SDS011;5193;51.032;6.356;2022-12-20T18:06:24;2.67;;;1.60;;
10295;SDS011;5193;51.032;6.356;2022-12-20T18:08:54;3.73;;;2.07;;
10295;SDS011;5193;51.032;6.356;2022-12-20T18:11:22;4.37;;;1.90;;
10295;SDS011;5193;51.032;6.356;2022-12-20T18:13:49;3.20;;;2.07;;